Time;durP1;ratioP1;P1;durP2;ratioP2;P2;SDS_P1;SDS_P2;PMS_P1;PMS_P2;Temp;Humidity;BMP_temperature;BMP_pressure;BME280_temperature;BME280_humidity;BME280_pressure;Samples;Min_cycle;Max_cycle;Signal;HPM_P1;HPM_P2
2023/05/05 00:01:25;;;;;;;8.88;5.40;;;14.90;99.20;;;;;;5161744;27;20045;-59
2023/05/05 00:03:51;;;;;;;12.73;5.35;;;14.80;99.30;;;;;;5174523;27;20034;-59
2023/05/05 00:06:16;;;;;;;12.43;5.50;;;14.80;99.40;;;;;;5171979;27;20046;-59
2023/05/05 00:08:42;;;;;;;11.98;5.70;;;14.80;99.60;;;;;;5159619;27;20123;-59
2023/05/05 00:11:08;;;;;;;8.60;5.43;;;14.70;99.60;;;;;;5175122;27;20070;-59
2023/05/05 00:13:34;;;;;;;7.32;5.15;;;14.70;99.70;;;;;;5175353;27;20125;-58
2023/05/05 00:15:59;;;;;;;8.10;5.20;;;14.70;99.80;;;;;;5175437;27;20030;-58
2023/05/05 00:18:25;;;;;;;9.30;5.68;;;14.70;99.90;;;;;;5174026;27;20049;-60
2023/05/05 00:20:51;;;;;;;9.00;5.72;;;14.70;99.90;;;;;;5175068;27;20125;-60
2023/05/05 00:23:18;;;;;;;9.48;5.72;;;14.70;99.90;;;;;;5134022;27;20034;-59
2023/05/05 00:25:44;;;;;;;10.32;5.50;;;14.70;99.90;;;;;;5139571;27;20049;-59
2023/05/05 00:28:10;;;;;;;12.55;5.85;;;14.70;99.90;;;;;;5170177;27;20117;-60
2023/05/05 00:30:37;;;;;;;12.05;5.88;;;14.60;99.90;;;;;;5173980;27;20041;-61
2023/05/05 00:33:03;;;;;;;10.27;5.72;;;14.60;99.90;;;;;;5175718;27;20030;-59
2023/05/05 00:35:29;;;;;;;12.88;5.88;;;14.60;99.90;;;;;;5173965;27;20518;-60
2023/05/05 00:37:54;;;;;;;10.00;5.80;;;14.50;99.90;;;;;;5174392;27;20067;-60
2023/05/05 00:40:20;;;;;;;10.35;5.88;;;14.50;99.90;;;;;;5158474;27;20038;-61
2023/05/05 00:42:49;;;;;;;10.32;6.18;;;14.50;99.90;;;;;;5169738;27;20041;-59
2023/05/05 00:45:16;;;;;;;10.77;5.65;;;14.40;99.90;;;;;;5173313;27;20041;-60
2023/05/05 00:47:51;;;;;;;11.75;5.70;;;14.40;99.90;;;;;;5163496;27;20102;-59
2023/05/05 00:50:29;;;;;;;11.93;5.82;;;14.30;99.90;;;;;;5115294;27;21257;-60
2023/05/05 00:52:59;;;;;;;9.18;5.63;;;14.30;99.90;;;;;;5135341;27;20379;-59
2023/05/05 00:55:25;;;;;;;10.13;5.93;;;14.40;99.90;;;;;;5173646;27;20030;-59
2023/05/05 00:57:51;;;;;;;10.88;5.95;;;14.30;99.90;;;;;;5172021;27;20031;-60
2023/05/05 01:00:17;;;;;;;11.63;6.30;;;14.30;99.90;;;;;;5174274;27;20054;-59
2023/05/05 01:02:43;;;;;;;11.18;5.78;;;14.30;99.90;;;;;;5173962;27;20034;-59
2023/05/05 01:05:10;;;;;;;11.48;5.75;;;14.30;99.90;;;;;;5171865;27;20038;-61
2023/05/05 01:07:57;;;;;;;11.55;6.20;;;14.40;99.90;;;;;;5173131;27;20090;-59
2023/05/05 01:10:29;;;;;;;10.18;6.65;;;14.30;99.90;;;;;;5168647;27;20076;-59
2023/05/05 01:13:28;;;;;;;11.70;6.80;;;14.30;99.90;;;;;;5168429;27;20480;-61
2023/05/05 01:16:22;;;;;;;11.65;6.40;;;14.30;99.90;;;;;;5173616;27;20471;-59
2023/05/05 01:19:09;;;;;;;12.60;7.13;;;14.30;99.90;;;;;;5135707;27;20045;-58
2023/05/05 01:21:45;;;;;;;9.30;6.30;;;14.30;99.90;;;;;;5171270;27;20061;-60
2023/05/05 01:24:27;;;;;;;9.80;6.55;;;14.20;99.90;;;;;;5172081;27;20257;-60
2023/05/05 01:27:08;;;;;;;8.02;6.20;;;14.20;99.90;;;;;;5156518;27;21303;-60
2023/05/05 01:29:58;;;;;;;11.48;6.35;;;14.20;99.90;;;;;;5171503;27;20050;-61
2023/05/05 01:32:40;;;;;;;10.32;6.45;;;14.10;99.90;;;;;;5170537;27;20038;-57
2023/05/05 01:35:17;;;;;;;12.25;6.57;;;14.10;99.90;;;;;;5172319;27;20122;-58
2023/05/05 01:37:54;;;;;;;10.63;6.68;;;14.00;99.90;;;;;;5172198;27;20045;-59
2023/05/05 01:40:26;;;;;;;11.77;6.60;;;13.90;99.90;;;;;;5170868;27;20042;-59
2023/05/05 01:42:53;;;;;;;11.93;7.00;;;14.00;99.90;;;;;;5171958;27;20065;-61
2023/05/05 01:45:24;;;;;;;11.20;7.15;;;14.00;99.90;;;;;;5174067;27;20466;-60
2023/05/05 01:47:52;;;;;;;10.85;6.70;;;13.90;99.90;;;;;;5149920;27;20090;-58
2023/05/05 01:50:19;;;;;;;12.10;6.93;;;13.90;99.90;;;;;;5147298;27;20043;-61
2023/05/05 01:52:46;;;;;;;9.50;7.07;;;13.90;99.90;;;;;;5157171;27;20500;-60
2023/05/05 01:55:17;;;;;;;13.02;7.10;;;13.90;99.90;;;;;;5133414;27;20069;-59
2023/05/05 01:57:45;;;;;;;10.85;7.22;;;13.90;99.90;;;;;;5160915;27;20041;-60
2023/05/05 02:00:13;;;;;;;14.05;7.40;;;13.90;99.90;;;;;;5173064;27;20042;-61
2023/05/05 02:02:40;;;;;;;9.98;7.18;;;13.90;99.90;;;;;;5173716;27;20070;-59
2023/05/05 02:05:06;;;;;;;10.77;7.10;;;13.90;99.90;;;;;;5171626;27;20034;-59
2023/05/05 02:07:33;;;;;;;11.82;7.18;;;13.90;99.90;;;;;;5173239;27;20591;-59
2023/05/05 02:10:01;;;;;;;10.93;6.78;;;13.80;99.90;;;;;;5132346;27;20051;-58
2023/05/05 02:12:29;;;;;;;13.70;7.60;;;13.80;99.90;;;;;;5139947;27;20042;-60
2023/05/05 02:14:58;;;;;;;12.52;7.82;;;13.80;99.90;;;;;;5173547;27;20042;-60
2023/05/05 02:17:25;;;;;;;11.50;6.82;;;13.80;99.90;;;;;;5136208;27;20471;-60
2023/05/05 02:19:53;;;;;;;11.48;7.75;;;13.70;99.90;;;;;;5135110;27;20107;-60
2023/05/05 02:22:19;;;;;;;12.85;7.50;;;13.70;99.90;;;;;;5121440;27;20108;-59
2023/05/05 02:24:45;;;;;;;11.68;7.22;;;13.70;99.90;;;;;;5139075;27;20096;-59
2023/05/05 02:27:14;;;;;;;13.45;7.72;;;13.60;99.90;;;;;;5172559;27;20511;-60
2023/05/05 02:29:52;;;;;;;11.55;7.65;;;13.60;99.90;;;;;;5171131;27;20050;-60
2023/05/05 02:32:25;;;;;;;13.75;7.90;;;13.60;99.90;;;;;;5172026;27;20117;-60
2023/05/05 02:34:53;;;;;;;13.77;7.97;;;13.50;99.90;;;;;;5172425;27;20174;-59
2023/05/05 02:37:23;;;;;;;11.13;8.05;;;13.50;99.90;;;;;;5171480;27;20075;-62
2023/05/05 02:40:03;;;;;;;13.70;7.65;;;13.50;99.90;;;;;;5172644;27;20057;-61
2023/05/05 02:42:35;;;;;;;13.95;7.65;;;13.60;99.90;;;;;;5172012;27;20041;-60
2023/05/05 02:45:06;;;;;;;12.48;8.77;;;13.50;99.90;;;;;;5144420;27;20042;-59
2023/05/05 02:47:35;;;;;;;11.32;7.93;;;13.60;99.90;;;;;;5172172;27;20041;-60
2023/05/05 02:50:06;;;;;;;12.65;8.05;;;13.50;99.90;;;;;;5173433;27;20475;-59
2023/05/05 02:52:32;;;;;;;16.60;9.35;;;13.50;99.90;;;;;;5131755;27;20039;-61
2023/05/05 02:54:59;;;;;;;13.35;8.70;;;13.50;99.90;;;;;;5155861;27;20033;-60
2023/05/05 02:57:40;;;;;;;13.77;9.63;;;13.50;99.90;;;;;;5168645;27;20038;-59
2023/05/05 03:00:33;;;;;;;12.65;9.20;;;13.50;99.90;;;;;;5171517;27;20125;-59
2023/05/05 03:03:19;;;;;;;13.73;9.55;;;13.40;99.90;;;;;;5170749;27;20038;-61
2023/05/05 03:05:54;;;;;;;15.30;9.20;;;13.30;99.90;;;;;;5171569;27;20049;-58
2023/05/05 03:08:29;;;;;;;16.02;10.38;;;13.30;99.90;;;;;;5171840;27;20042;-59
2023/05/05 03:11:04;;;;;;;14.38;10.02;;;13.30;99.90;;;;;;5149278;27;20034;-60
2023/05/05 03:13:33;;;;;;;16.05;9.82;;;13.20;99.90;;;;;;5167797;27;20034;-59
2023/05/05 03:16:05;;;;;;;14.48;10.32;;;13.20;99.90;;;;;;5171742;27;20593;-61
2023/05/05 03:18:33;;;;;;;12.88;11.18;;;13.30;99.90;;;;;;5170561;27;20065;-61
2023/05/05 03:21:07;;;;;;;16.48;9.95;;;13.20;99.90;;;;;;5146786;27;20046;-60
2023/05/05 03:23:33;;;;;;;14.00;10.15;;;13.30;99.90;;;;;;5170429;27;20147;-61
2023/05/05 03:25:59;;;;;;;16.42;10.93;;;13.30;99.90;;;;;;5172305;27;20133;-61
2023/05/05 03:28:25;;;;;;;19.48;10.80;;;13.30;99.90;;;;;;5170144;27;20162;-59
2023/05/05 03:30:51;;;;;;;22.25;11.23;;;13.30;99.90;;;;;;5171902;27;20039;-60
2023/05/05 03:33:17;;;;;;;28.10;13.23;;;13.30;99.90;;;;;;5171373;27;20030;-61
2023/05/05 03:35:43;;;;;;;15.52;11.38;;;13.30;99.90;;;;;;5172829;27;20033;-58
2023/05/05 03:38:08;;;;;;;20.77;12.52;;;13.20;99.90;;;;;;5171293;27;20027;-59
2023/05/05 03:40:34;;;;;;;19.08;12.10;;;13.20;99.90;;;;;;5170485;27;20034;-59
2023/05/05 03:43:00;;;;;;;20.10;11.55;;;13.10;99.90;;;;;;5171810;27;20038;-58
2023/05/05 03:45:25;;;;;;;20.98;12.05;;;13.00;99.90;;;;;;5169957;27;20027;-61
2023/05/05 03:47:51;;;;;;;19.23;12.68;;;12.90;99.90;;;;;;5171720;27;20034;-59
2023/05/05 03:50:17;;;;;;;25.52;13.25;;;12.90;99.90;;;;;;5169711;27;20079;-60
2023/05/05 03:52:42;;;;;;;17.88;13.05;;;12.90;99.90;;;;;;5170937;27;20030;-57
2023/05/05 03:55:08;;;;;;;18.48;12.77;;;12.90;99.90;;;;;;5159851;27;20663;-61
2023/05/05 03:57:34;;;;;;;19.00;12.95;;;12.90;99.90;;;;;;5130527;27;20051;-60
2023/05/05 04:00:00;;;;;;;18.50;12.27;;;12.90;99.90;;;;;;5153865;27;20091;-59
2023/05/05 04:02:26;;;;;;;19.02;12.27;;;12.80;99.90;;;;;;5169985;27;20038;-61
2023/05/05 04:04:52;;;;;;;15.68;12.20;;;12.80;99.90;;;;;;5163432;27;20179;-60
2023/05/05 04:07:17;;;;;;;18.55;12.68;;;12.80;99.90;;;;;;5170560;27;20054;-61
2023/05/05 04:09:43;;;;;;;17.75;12.85;;;12.70;99.90;;;;;;5171101;27;20074;-57
2023/05/05 04:12:10;;;;;;;20.20;12.95;;;12.70;99.90;;;;;;5171313;27;20034;-60
2023/05/05 04:14:36;;;;;;;19.92;13.43;;;12.60;99.90;;;;;;5121072;27;20034;-59
2023/05/05 04:17:01;;;;;;;17.33;12.70;;;12.50;99.90;;;;;;5167764;27;20034;-59
2023/05/05 04:19:27;;;;;;;17.42;12.30;;;12.50;99.90;;;;;;5168268;27;20034;-59
2023/05/05 04:21:52;;;;;;;17.02;13.00;;;12.40;99.90;;;;;;5137675;27;20492;-60
2023/05/05 04:24:23;;;;;;;17.27;12.70;;;12.40;99.90;;;;;;5173659;27;20442;-59
2023/05/05 04:26:49;;;;;;;17.73;13.63;;;12.40;99.90;;;;;;5148083;27;20464;-58
2023/05/05 04:29:15;;;;;;;22.40;13.68;;;12.40;99.90;;;;;;5158961;27;20460;-59
2023/05/05 04:31:41;;;;;;;19.90;14.15;;;12.50;99.90;;;;;;5149066;27;20031;-59
2023/05/05 04:34:07;;;;;;;18.80;13.73;;;12.40;99.90;;;;;;5134797;27;20118;-59
2023/05/05 04:36:33;;;;;;;22.33;13.65;;;12.40;99.90;;;;;;5158802;27;20110;-59
2023/05/05 04:38:59;;;;;;;19.40;13.48;;;12.40;99.90;;;;;;5175147;27;20037;-59
2023/05/05 04:41:25;;;;;;;19.60;13.75;;;12.40;99.90;;;;;;5173717;27;20503;-60
2023/05/05 04:43:51;;;;;;;20.58;13.07;;;12.40;99.90;;;;;;5174479;27;20122;-58
2023/05/05 04:46:17;;;;;;;19.00;14.38;;;12.30;99.90;;;;;;5173885;27;20044;-59
2023/05/05 04:48:43;;;;;;;26.42;15.50;;;12.30;99.90;;;;;;5173263;27;20034;-59
2023/05/05 04:51:08;;;;;;;19.25;14.63;;;12.30;99.90;;;;;;5173356;27;20073;-59
2023/05/05 04:53:34;;;;;;;19.40;15.15;;;12.30;99.90;;;;;;5174800;27;20030;-60
2023/05/05 04:56:00;;;;;;;21.85;15.13;;;12.20;99.90;;;;;;5173352;27;20453;-60
2023/05/05 04:58:27;;;;;;;21.02;15.07;;;12.20;99.90;;;;;;5141387;27;20042;-59
2023/05/05 05:00:53;;;;;;;20.40;14.07;;;12.30;99.90;;;;;;5170424;27;20083;-59
2023/05/05 05:03:19;;;;;;;18.75;14.50;;;12.30;99.90;;;;;;5174920;27;20034;-61
2023/05/05 05:05:45;;;;;;;22.33;14.68;;;12.40;99.90;;;;;;5172565;27;20036;-60
2023/05/05 05:08:10;;;;;;;22.67;15.02;;;12.40;99.90;;;;;;5174552;27;20465;-58
2023/05/05 05:10:36;;;;;;;18.45;13.50;;;12.50;99.90;;;;;;5172715;27;20056;-58
2023/05/05 05:13:02;;;;;;;21.25;14.75;;;12.50;99.90;;;;;;5167635;27;20037;-58
2023/05/05 05:15:27;;;;;;;20.58;14.20;;;12.50;99.90;;;;;;5142776;27;20030;-61
2023/05/05 05:17:53;;;;;;;18.33;14.70;;;12.60;99.90;;;;;;5172366;27;20129;-60
2023/05/05 05:20:19;;;;;;;16.75;13.77;;;12.60;99.90;;;;;;5171275;27;20038;-59
2023/05/05 05:22:45;;;;;;;21.65;15.82;;;12.70;99.90;;;;;;5174090;27;20034;-59
2023/05/05 05:25:10;;;;;;;21.23;17.23;;;12.70;99.90;;;;;;5173001;27;20045;-61
2023/05/05 05:27:36;;;;;;;20.08;15.50;;;12.80;99.90;;;;;;5173762;27;20503;-58
2023/05/05 05:30:02;;;;;;;21.60;14.98;;;12.80;99.90;;;;;;5117264;27;20043;-60
2023/05/05 05:32:28;;;;;;;21.38;15.77;;;12.80;99.90;;;;;;5152229;27;20117;-59
2023/05/05 05:34:54;;;;;;;19.95;15.00;;;12.80;99.90;;;;;;5138456;27;20030;-60
2023/05/05 05:37:19;;;;;;;18.58;14.32;;;12.80;99.90;;;;;;5146786;27;20372;-59
2023/05/05 05:39:51;;;;;;;18.90;15.07;;;12.80;99.90;;;;;;5173103;27;20042;-59
2023/05/05 05:42:17;;;;;;;23.95;14.98;;;12.80;99.90;;;;;;5172176;27;20034;-59
2023/05/05 05:44:43;;;;;;;19.83;13.63;;;12.80;99.90;;;;;;5172820;27;20111;-58
2023/05/05 05:47:08;;;;;;;17.77;13.63;;;12.80;99.90;;;;;;5172878;27;20038;-58
2023/05/05 05:49:34;;;;;;;20.92;13.60;;;12.80;99.90;;;;;;5172736;27;20121;-58
2023/05/05 05:52:00;;;;;;;21.25;14.38;;;12.90;99.90;;;;;;5172088;27;20034;-61
2023/05/05 05:54:25;;;;;;;15.60;13.32;;;13.00;99.90;;;;;;5168501;27;20038;-58
2023/05/05 05:56:51;;;;;;;19.85;14.43;;;12.90;99.90;;;;;;5172285;27;20044;-60
2023/05/05 05:59:17;;;;;;;18.90;14.98;;;13.10;99.90;;;;;;5172736;27;20074;-60
2023/05/05 06:01:42;;;;;;;17.02;14.32;;;13.10;99.90;;;;;;5123511;27;20034;-61
2023/05/05 06:04:08;;;;;;;16.70;14.50;;;13.20;99.90;;;;;;5173770;27;20044;-61
2023/05/05 06:06:34;;;;;;;17.80;13.18;;;13.30;99.90;;;;;;5165298;27;20765;-57
2023/05/05 06:08:59;;;;;;;16.15;13.07;;;13.30;99.90;;;;;;5172863;27;20034;-59
2023/05/05 06:11:25;;;;;;;19.30;13.35;;;13.30;99.90;;;;;;5172862;27;20038;-61
2023/05/05 06:13:51;;;;;;;17.75;13.57;;;13.40;99.90;;;;;;5167099;27;20507;-59
2023/05/05 06:16:17;;;;;;;18.58;15.18;;;13.40;99.90;;;;;;5163954;27;20047;-60
2023/05/05 06:18:42;;;;;;;17.05;15.05;;;13.50;99.90;;;;;;5173786;27;20096;-59
2023/05/05 06:21:08;;;;;;;19.33;14.60;;;13.50;99.90;;;;;;5172624;27;20034;-61
2023/05/05 06:23:33;;;;;;;21.48;14.95;;;13.50;99.90;;;;;;5168281;27;20129;-58
2023/05/05 06:25:59;;;;;;;24.00;15.07;;;13.60;99.90;;;;;;5172935;27;20034;-59
2023/05/05 06:28:25;;;;;;;20.50;14.63;;;13.60;99.90;;;;;;5172396;27;20026;-60
2023/05/05 06:30:50;;;;;;;18.35;15.65;;;13.70;99.90;;;;;;5172028;27;20046;-60
2023/05/05 06:33:16;;;;;;;21.30;15.40;;;13.70;99.90;;;;;;5146634;27;20038;-58
2023/05/05 06:35:42;;;;;;;19.63;16.20;;;13.80;99.90;;;;;;5167024;27;20034;-59
2023/05/05 06:38:08;;;;;;;22.05;16.88;;;13.80;99.90;;;;;;5171055;27;20037;-59
2023/05/05 06:40:34;;;;;;;19.75;15.82;;;13.90;99.90;;;;;;5173874;27;20042;-60
2023/05/05 06:43:00;;;;;;;20.45;15.82;;;14.00;99.90;;;;;;5173755;27;20600;-60
2023/05/05 06:45:26;;;;;;;20.35;16.33;;;14.10;99.90;;;;;;5171676;27;20042;-58
2023/05/05 06:47:52;;;;;;;21.40;16.80;;;14.20;99.90;;;;;;5132750;27;20221;-59
2023/05/05 06:50:18;;;;;;;19.80;16.35;;;14.30;99.90;;;;;;5168814;27;20358;-58
2023/05/05 06:52:44;;;;;;;22.10;16.98;;;14.40;99.90;;;;;;5171619;27;20046;-60
2023/05/05 06:55:10;;;;;;;23.63;16.52;;;14.40;99.90;;;;;;5170302;27;20430;-59
2023/05/05 06:57:35;;;;;;;21.70;17.10;;;14.50;99.90;;;;;;5171216;27;20034;-59
2023/05/05 07:00:04;;;;;;;21.33;17.08;;;14.60;99.90;;;;;;5170537;27;20042;-61
2023/05/05 07:02:30;;;;;;;22.83;18.20;;;14.70;99.90;;;;;;5135462;27;20093;-59
2023/05/05 07:04:56;;;;;;;23.58;18.52;;;14.80;99.90;;;;;;5169997;27;20061;-62
2023/05/05 07:07:22;;;;;;;24.63;18.98;;;14.80;99.90;;;;;;5171680;27;20380;-59
2023/05/05 07:09:47;;;;;;;25.40;18.65;;;14.90;99.90;;;;;;5171648;27;20481;-59
2023/05/05 07:12:13;;;;;;;22.25;18.92;;;14.90;99.90;;;;;;5170900;27;20511;-59
2023/05/05 07:14:39;;;;;;;30.75;19.38;;;15.00;99.90;;;;;;5170867;27;20026;-61
2023/05/05 07:17:04;;;;;;;24.75;19.75;;;15.10;99.90;;;;;;5172733;27;20041;-59
2023/05/05 07:19:30;;;;;;;24.95;19.70;;;15.10;99.90;;;;;;5169021;27;20042;-60
2023/05/05 07:21:56;;;;;;;26.27;20.17;;;15.20;99.90;;;;;;5171905;27;20053;-58
2023/05/05 07:24:23;;;;;;;24.63;19.20;;;15.20;99.90;;;;;;5131563;27;20409;-60
2023/05/05 07:26:48;;;;;;;28.20;19.23;;;15.30;99.90;;;;;;5147309;27;20043;-61
2023/05/05 07:29:14;;;;;;;26.13;19.58;;;15.40;99.90;;;;;;5161899;27;20038;-62
2023/05/05 07:31:40;;;;;;;26.15;19.65;;;15.40;99.90;;;;;;5160890;27;20042;-61
2023/05/05 07:34:06;;;;;;;27.38;18.90;;;15.50;99.90;;;;;;5160909;27;20142;-59
2023/05/05 07:36:31;;;;;;;24.40;19.10;;;15.60;99.90;;;;;;5171657;27;20183;-59
2023/05/05 07:38:57;;;;;;;27.77;19.65;;;15.70;99.90;;;;;;5162644;27;20064;-59
2023/05/05 07:41:23;;;;;;;27.08;19.67;;;15.70;99.90;;;;;;5161528;27;20118;-60
2023/05/05 07:43:49;;;;;;;27.35;18.17;;;15.80;99.90;;;;;;5168570;27;20030;-59
2023/05/05 07:46:14;;;;;;;23.38;19.15;;;15.80;99.90;;;;;;5171039;27;20038;-60
2023/05/05 07:48:40;;;;;;;25.33;17.75;;;16.00;99.90;;;;;;5171493;27;20022;-60
2023/05/05 07:51:06;;;;;;;20.73;16.50;;;16.00;99.90;;;;;;5171008;27;20039;-61
2023/05/05 07:53:32;;;;;;;23.55;16.42;;;16.10;99.90;;;;;;5163599;27;20096;-62
2023/05/05 07:55:57;;;;;;;21.73;17.27;;;16.20;99.90;;;;;;5144004;27;20071;-59
2023/05/05 07:58:23;;;;;;;24.73;16.60;;;16.30;99.90;;;;;;5151151;27;20035;-60
2023/05/05 08:00:50;;;;;;;28.73;18.02;;;16.30;99.90;;;;;;5156739;27;20041;-60
2023/05/05 08:03:17;;;;;;;23.25;15.60;;;16.40;99.90;;;;;;5161843;27;20034;-61
2023/05/05 08:05:42;;;;;;;18.40;15.07;;;16.40;99.90;;;;;;5154749;27;20033;-58
2023/05/05 08:08:08;;;;;;;23.50;15.95;;;16.50;99.90;;;;;;5157170;27;20046;-59
2023/05/05 08:10:34;;;;;;;22.85;14.73;;;16.60;99.90;;;;;;5158309;27;20057;-59
2023/05/05 08:13:00;;;;;;;22.48;14.25;;;16.60;99.90;;;;;;5158513;27;20067;-60
2023/05/05 08:15:25;;;;;;;18.77;12.70;;;16.70;99.90;;;;;;5161736;27;20061;-60
2023/05/05 08:17:54;;;;;;;15.73;12.02;;;16.70;99.90;;;;;;5158921;27;20583;-58
2023/05/05 08:20:20;;;;;;;17.00;11.85;;;16.70;99.90;;;;;;5157042;27;20054;-58
2023/05/05 08:22:47;;;;;;;17.55;12.20;;;16.60;99.90;;;;;;5159294;27;20049;-60
2023/05/05 08:25:13;;;;;;;18.48;11.38;;;16.60;99.90;;;;;;5159234;27;20468;-60
2023/05/05 08:27:40;;;;;;;18.35;11.38;;;16.50;99.90;;;;;;5150824;27;20038;-59
2023/05/05 08:30:06;;;;;;;15.80;10.65;;;16.60;99.90;;;;;;5155955;27;20034;-60
2023/05/05 08:32:32;;;;;;;14.05;10.57;;;16.60;99.90;;;;;;5160439;27;20034;-59
2023/05/05 08:35:01;;;;;;;13.32;9.60;;;16.70;99.90;;;;;;5153234;27;20041;-61
2023/05/05 08:37:27;;;;;;;10.55;8.30;;;16.80;99.90;;;;;;5159053;27;20023;-60
2023/05/05 08:39:53;;;;;;;12.43;8.35;;;16.80;99.90;;;;;;5158769;27;20086;-59
2023/05/05 08:42:18;;;;;;;13.77;8.75;;;16.90;99.90;;;;;;5156330;27;20565;-60
2023/05/05 08:44:44;;;;;;;12.10;8.30;;;17.00;99.90;;;;;;5132626;27;20512;-61
2023/05/05 08:47:11;;;;;;;11.70;7.60;;;17.00;99.90;;;;;;5157864;27;20048;-59
2023/05/05 08:49:43;;;;;;;12.40;7.47;;;17.10;99.90;;;;;;5157591;27;20043;-58
2023/05/05 08:52:12;;;;;;;13.65;8.60;;;17.20;99.90;;;;;;5131337;27;20031;-59
2023/05/05 08:54:44;;;;;;;12.77;7.75;;;17.30;99.90;;;;;;5127258;27;20027;-60
2023/05/05 08:57:13;;;;;;;12.32;7.43;;;17.30;99.90;;;;;;5142740;27;20030;-61
2023/05/05 08:59:40;;;;;;;12.02;7.78;;;17.40;99.90;;;;;;5126173;27;20120;-61
2023/05/05 09:02:07;;;;;;;11.77;8.25;;;17.40;99.90;;;;;;5149473;27;20045;-60
2023/05/05 09:04:33;;;;;;;12.07;8.52;;;17.50;99.90;;;;;;5131576;27;20041;-59
2023/05/05 09:06:59;;;;;;;10.38;7.07;;;17.60;99.90;;;;;;5156734;27;20030;-59
2023/05/05 09:09:26;;;;;;;11.48;6.45;;;17.70;99.90;;;;;;5155723;27;20095;-58
2023/05/05 09:11:53;;;;;;;11.40;6.90;;;17.80;99.90;;;;;;5158184;27;20070;-58
2023/05/05 09:14:19;;;;;;;14.40;7.43;;;18.10;99.90;;;;;;5156501;27;20385;-59
2023/05/05 09:16:45;;;;;;;12.02;7.38;;;18.20;99.90;;;;;;5156557;27;20044;-61
2023/05/05 09:19:11;;;;;;;10.82;7.00;;;18.40;99.90;;;;;;5153746;27;20030;-61
2023/05/05 09:21:45;;;;;;;12.70;7.63;;;18.50;99.90;;;;;;5156551;27;20413;-60
2023/05/05 09:24:14;;;;;;;13.80;7.68;;;18.60;99.90;;;;;;5158346;27;20353;-60
2023/05/05 09:26:46;;;;;;;11.05;7.55;;;18.70;99.90;;;;;;5156147;27;20046;-60
2023/05/05 09:29:19;;;;;;;14.32;8.10;;;18.80;99.90;;;;;;5156856;27;20046;-61
2023/05/05 09:32:04;;;;;;;13.35;7.65;;;18.90;99.90;;;;;;5156618;27;20034;-60
2023/05/05 09:34:32;;;;;;;12.30;7.90;;;19.00;99.90;;;;;;5157305;27;20105;-60
2023/05/05 09:36:57;;;;;;;13.73;8.38;;;19.00;99.90;;;;;;5161292;27;20380;-60
2023/05/05 09:39:23;;;;;;;12.68;8.45;;;19.10;99.90;;;;;;5169835;27;20030;-58
2023/05/05 09:41:48;;;;;;;13.60;8.82;;;19.20;99.90;;;;;;5172101;27;20499;-61
2023/05/05 09:44:17;;;;;;;16.90;10.02;;;19.20;99.90;;;;;;5169702;27;20484;-59
2023/05/05 09:46:54;;;;;;;14.15;8.88;;;19.30;99.90;;;;;;5172605;27;20104;-59
2023/05/05 09:49:25;;;;;;;12.90;8.13;;;19.30;99.90;;;;;;5135635;27;20086;-59
2023/05/05 09:51:51;;;;;;;12.80;7.85;;;19.30;99.90;;;;;;5170386;27;20422;-58
2023/05/05 09:54:28;;;;;;;10.68;6.88;;;19.20;99.90;;;;;;5172556;27;20034;-61
2023/05/05 09:56:57;;;;;;;9.13;6.13;;;19.40;99.90;;;;;;5159923;27;20088;-60
2023/05/05 09:59:23;;;;;;;10.90;5.53;;;19.70;99.90;;;;;;5165856;27;20031;-59
2023/05/05 10:01:50;;;;;;;9.95;5.55;;;19.80;99.90;;;;;;5153031;27;20038;-59
2023/05/05 10:04:23;;;;;;;9.55;5.60;;;19.90;99.90;;;;;;5140320;27;20031;-60
2023/05/05 10:06:49;;;;;;;9.50;5.80;;;19.90;99.90;;;;;;5138243;27;20042;-59
2023/05/05 10:09:15;;;;;;;10.48;5.57;;;19.90;99.90;;;;;;5134088;27;20062;-60
2023/05/05 10:11:43;;;;;;;10.55;5.78;;;20.00;99.90;;;;;;5133155;27;20039;-59
2023/05/05 10:14:14;;;;;;;10.27;6.20;;;20.00;99.90;;;;;;5168997;27;20346;-60
2023/05/05 10:16:50;;;;;;;9.63;5.38;;;20.00;99.90;;;;;;5171761;27;20113;-59
2023/05/05 10:19:18;;;;;;;9.55;5.05;;;20.10;99.90;;;;;;5166147;27;20037;-59
2023/05/05 10:21:52;;;;;;;10.02;4.55;;;20.00;99.90;;;;;;5167851;27;20120;-60
2023/05/05 10:24:36;;;;;;;10.13;5.15;;;20.00;99.90;;;;;;5166176;27;20046;-58
2023/05/05 10:27:10;;;;;;;9.10;4.72;;;19.90;99.90;;;;;;5166225;27;20480;-60
2023/05/05 10:30:05;;;;;;;9.00;4.70;;;19.80;99.90;;;;;;5172482;27;20038;-60
2023/05/05 10:32:31;;;;;;;7.88;4.40;;;19.70;99.90;;;;;;5138704;27;20035;-59
2023/05/05 10:35:00;;;;;;;8.57;4.97;;;19.60;99.90;;;;;;5164244;27;20030;-59
2023/05/05 10:37:28;;;;;;;9.73;4.53;;;19.50;99.90;;;;;;5159057;27;20094;-60
2023/05/05 10:39:56;;;;;;;8.18;3.95;;;19.60;99.90;;;;;;5151309;27;20065;-59
2023/05/05 10:42:22;;;;;;;7.45;3.60;;;19.70;99.90;;;;;;5160422;27;20046;-60
2023/05/05 10:44:49;;;;;;;7.50;3.70;;;19.90;99.90;;;;;;5164860;27;20038;-59
2023/05/05 10:47:17;;;;;;;6.80;2.53;;;20.00;99.90;;;;;;5161243;27;20031;-59
2023/05/05 10:50:07;;;;;;;6.32;2.25;;;20.10;99.90;;;;;;5166417;27;20038;-59
2023/05/05 10:52:40;;;;;;;7.55;2.80;;;20.10;99.90;;;;;;5167090;27;20167;-60
2023/05/05 10:55:18;;;;;;;8.32;3.72;;;20.10;99.90;;;;;;5163557;27;20085;-60
2023/05/05 10:57:45;;;;;;;5.82;2.70;;;20.00;99.90;;;;;;5164052;27;20030;-58
2023/05/05 11:00:36;;;;;;;6.28;1.90;;;19.90;99.90;;;;;;5167592;27;20042;-59
2023/05/05 11:03:17;;;;;;;3.92;1.40;;;19.80;99.90;;;;;;5163488;27;20042;-58
2023/05/05 11:06:06;;;;;;;3.92;0.88;;;19.80;99.90;;;;;;5164934;27;20090;-58
2023/05/05 11:08:37;;;;;;;3.33;0.75;;;19.80;99.90;;;;;;5128872;27;20080;-58
2023/05/05 11:11:03;;;;;;;3.53;0.80;;;19.80;99.90;;;;;;5163195;27;20534;-59
2023/05/05 11:13:30;;;;;;;4.95;1.25;;;19.70;99.90;;;;;;5168146;27;20088;-58
2023/05/05 11:15:56;;;;;;;4.85;0.90;;;19.70;99.90;;;;;;5168160;27;20413;-59
2023/05/05 11:18:39;;;;;;;5.15;1.52;;;19.60;99.90;;;;;;5161131;27;20046;-58
2023/05/05 11:21:16;;;;;;;4.50;1.50;;;19.70;99.90;;;;;;5158010;27;20118;-59
2023/05/05 11:23:48;;;;;;;6.10;1.90;;;19.70;99.90;;;;;;5172571;27;20033;-60
2023/05/05 11:26:15;;;;;;;5.82;2.20;;;19.80;99.90;;;;;;5168437;27;20039;-60
2023/05/05 11:28:55;;;;;;;6.05;2.30;;;19.80;99.90;;;;;;5162309;27;20549;-58
2023/05/05 11:31:21;;;;;;;6.10;2.88;;;19.90;99.90;;;;;;5136934;27;20047;-58
2023/05/05 11:33:47;;;;;;;8.30;3.08;;;19.80;99.90;;;;;;5149012;27;20137;-58
2023/05/05 11:36:16;;;;;;;5.07;2.90;;;19.80;99.90;;;;;;5163140;27;20176;-58
2023/05/05 11:39:11;;;;;;;8.68;3.45;;;19.70;99.90;;;;;;5166402;27;20123;-58
2023/05/05 11:42:18;;;;;;;7.18;3.90;;;19.50;99.90;;;;;;5136066;27;20074;-59
2023/05/05 11:44:44;;;;;;;8.30;3.85;;;19.30;99.90;;;;;;5174171;27;20113;-58
2023/05/05 11:47:10;;;;;;;7.70;4.20;;;19.00;99.90;;;;;;5176245;27;20077;-59
2023/05/05 11:49:37;;;;;;;9.90;4.22;;;18.80;99.90;;;;;;5174727;27;20074;-58
2023/05/05 11:52:06;;;;;;;6.70;4.13;;;18.60;99.90;;;;;;5135922;27;20043;-59
2023/05/05 11:54:36;;;;;;;8.82;4.60;;;18.40;99.90;;;;;;5161346;27;20099;-59
2023/05/05 11:57:07;;;;;;;7.82;4.60;;;18.20;99.90;;;;;;5163379;27;20047;-59
2023/05/05 11:59:35;;;;;;;8.70;5.07;;;18.00;99.90;;;;;;5163458;27;20071;-59
2023/05/05 12:02:02;;;;;;;10.50;4.95;;;17.70;99.90;;;;;;5166140;27;20038;-58
2023/05/05 12:04:29;;;;;;;8.82;3.75;;;17.50;99.90;;;;;;5157329;27;20038;-59
2023/05/05 12:06:55;;;;;;;9.75;2.72;;;17.20;99.90;;;;;;5168697;27;20447;-58
2023/05/05 12:09:22;;;;;;;6.25;2.30;;;16.80;99.90;;;;;;5170243;27;20100;-58
2023/05/05 12:11:53;;;;;;;7.28;3.05;;;16.40;99.90;;;;;;5174470;27;20170;-58
2023/05/05 12:14:20;;;;;;;6.60;3.17;;;16.10;99.90;;;;;;5176379;27;20076;-58
2023/05/05 12:16:56;;;;;;;6.60;2.50;;;15.70;99.90;;;;;;5152319;27;20032;-57
2023/05/05 12:19:22;;;;;;;6.78;2.70;;;15.30;99.90;;;;;;5137613;27;20053;-58
2023/05/05 12:21:48;;;;;;;7.07;3.10;;;15.10;99.90;;;;;;5162150;27;20085;-59
2023/05/05 12:24:14;;;;;;;8.93;3.30;;;14.90;99.90;;;;;;5156388;27;20069;-58
2023/05/05 12:26:40;;;;;;;5.45;2.45;;;14.70;99.90;;;;;;5168287;27;20034;-58
2023/05/05 12:29:06;;;;;;;9.55;2.88;;;14.70;99.90;;;;;;5169302;27;20075;-58
2023/05/05 12:31:41;;;;;;;5.53;1.92;;;14.70;99.90;;;;;;5169555;27;20074;-57
2023/05/05 12:34:09;;;;;;;7.05;2.67;;;14.60;99.90;;;;;;5163589;27;20056;-59
2023/05/05 12:36:35;;;;;;;8.25;2.30;;;14.60;99.90;;;;;;5151951;27;20107;-59
2023/05/05 12:39:05;;;;;;;7.63;1.90;;;14.60;99.90;;;;;;5167821;27;20508;-59
2023/05/05 12:41:32;;;;;;;6.95;1.50;;;14.50;99.90;;;;;;5161054;27;20031;-58
2023/05/05 12:43:58;;;;;;;5.20;1.73;;;14.60;99.90;;;;;;5157627;27;20035;-58